sensor_id;sensor_type;location;lat;lon;timestamp;temperature;humidity
25688;DHT22;17407;51.120;3.702;2023-06-19T00:02:20;19.90;99.90
25688;DHT22;17407;51.120;3.702;2023-06-19T00:04:46;20.00;99.90
25688;DHT22;17407;51.120;3.702;2023-06-19T00:07:12;20.00;99.90
25688;DHT22;17407;51.120;3.702;2023-06-19T00:09:37;20.00;99.90
25688;DHT22;17407;51.120;3.702;2023-06-19T00:12:03;20.00;99.90
25688;DHT22;17407;51.120;3.702;2023-06-19T00:14:29;20.00;99.90
25688;DHT22;17407;51.120;3.702;2023-06-19T00:16:55;20.10;99.90
25688;DHT22;17407;51.120;3.702;2023-06-19T00:19:22;20.10;99.90
25688;DHT22;17407;51.120;3.702;2023-06-19T00:21:48;20.20;99.90
25688;DHT22;17407;51.120;3.702;2023-06-19T00:24:13;20.10;99.90
25688;DHT22;17407;51.120;3.702;2023-06-19T00:26:39;20.10;99.90
25688;DHT22;17407;51.120;3.702;2023-06-19T00:29:05;20.10;99.90
25688;DHT22;17407;51.120;3.702;2023-06-19T00:31:32;20.20;99.90
25688;DHT22;17407;51.120;3.702;2023-06-19T00:33:58;20.20;99.90
25688;DHT22;17407;51.120;3.702;2023-06-19T00:36:23;20.20;99.90
25688;DHT22;17407;51.120;3.702;2023-06-19T00:38:51;20.10;99.90
25688;DHT22;17407;51.120;3.702;2023-06-19T00:41:17;20.10;99.90
25688;DHT22;17407;51.120;3.702;2023-06-19T00:43:43;20.00;99.90
25688;DHT22;17407;51.120;3.702;2023-06-19T00:46:10;20.00;99.90
25688;DHT22;17407;51.120;3.702;2023-06-19T00:48:36;20.10;99.90
25688;DHT22;17407;51.120;3.702;2023-06-19T00:51:02;20.10;99.90
25688;DHT22;17407;51.120;3.702;2023-06-19T00:53:28;20.10;99.90
25688;DHT22;17407;51.120;3.702;2023-06-19T00:55:56;20.40;99.90
25688;DHT22;17407;51.120;3.702;2023-06-19T00:58:23;20.30;99.90
25688;DHT22;17407;51.120;3.702;2023-06-19T01:00:50;20.40;99.90
25688;DHT22;17407;51.120;3.702;2023-06-19T01:03:16;20.30;99.90
25688;DHT22;17407;51.120;3.702;2023-06-19T01:05:42;20.30;99.90
25688;DHT22;17407;51.120;3.702;2023-06-19T01:10:56;20.20;99.90
25688;DHT22;17407;51.120;3.702;2023-06-19T01:16:04;20.10;99.90
25688;DHT22;17407;51.120;3.702;2023-06-19T01:18:31;20.00;99.90
25688;DHT22;17407;51.120;3.702;2023-06-19T01:21:13;20.00;99.90
25688;DHT22;17407;51.120;3.702;2023-06-19T01:23:38;20.10;99.90
25688;DHT22;17407;51.120;3.702;2023-06-19T01:26:05;20.10;99.90
25688;DHT22;17407;51.120;3.702;2023-06-19T01:28:32;20.10;99.90
25688;DHT22;17407;51.120;3.702;2023-06-19T01:31:00;20.10;99.90
25688;DHT22;17407;51.120;3.702;2023-06-19T01:33:28;20.10;99.90
25688;DHT22;17407;51.120;3.702;2023-06-19T01:35:57;20.10;99.90
25688;DHT22;17407;51.120;3.702;2023-06-19T01:38:24;20.20;99.90
25688;DHT22;17407;51.120;3.702;2023-06-19T01:40:55;20.20;99.90
25688;DHT22;17407;51.120;3.702;2023-06-19T01:43:23;20.00;99.90
25688;DHT22;17407;51.120;3.702;2023-06-19T01:45:48;20.00;99.90
25688;DHT22;17407;51.120;3.702;2023-06-19T01:48:15;20.20;99.90
25688;DHT22;17407;51.120;3.702;2023-06-19T01:50:45;20.20;99.90
25688;DHT22;17407;51.120;3.702;2023-06-19T01:53:12;20.20;99.90
25688;DHT22;17407;51.120;3.702;2023-06-19T01:55:38;20.30;99.90
25688;DHT22;17407;51.120;3.702;2023-06-19T01:58:03;20.30;99.90
25688;DHT22;17407;51.120;3.702;2023-06-19T02:00:29;20.10;99.90
25688;DHT22;17407;51.120;3.702;2023-06-19T02:02:55;20.30;99.90
25688;DHT22;17407;51.120;3.702;2023-06-19T02:05:21;20.10;99.90
25688;DHT22;17407;51.120;3.702;2023-06-19T02:07:47;20.00;99.90
25688;DHT22;17407;51.120;3.702;2023-06-19T02:10:13;20.00;99.90
25688;DHT22;17407;51.120;3.702;2023-06-19T02:12:38;20.00;99.90
25688;DHT22;17407;51.120;3.702;2023-06-19T02:15:04;19.70;99.90
25688;DHT22;17407;51.120;3.702;2023-06-19T02:17:30;19.60;99.90
25688;DHT22;17407;51.120;3.702;2023-06-19T02:19:55;19.60;99.90
25688;DHT22;17407;51.120;3.702;2023-06-19T02:22:21;19.50;99.90
25688;DHT22;17407;51.120;3.702;2023-06-19T02:24:47;19.40;99.90
25688;DHT22;17407;51.120;3.702;2023-06-19T02:27:12;19.40;99.90
25688;DHT22;17407;51.120;3.702;2023-06-19T02:29:38;19.40;99.90
25688;DHT22;17407;51.120;3.702;2023-06-19T02:32:04;19.50;99.90
25688;DHT22;17407;51.120;3.702;2023-06-19T02:34:30;19.40;99.90
25688;DHT22;17407;51.120;3.702;2023-06-19T02:36:56;19.30;99.90
25688;DHT22;17407;51.120;3.702;2023-06-19T02:39:21;19.30;99.90
25688;DHT22;17407;51.120;3.702;2023-06-19T02:41:48;19.30;99.90
25688;DHT22;17407;51.120;3.702;2023-06-19T02:44:14;19.20;99.90
25688;DHT22;17407;51.120;3.702;2023-06-19T02:46:40;19.20;99.90
25688;DHT22;17407;51.120;3.702;2023-06-19T02:49:05;19.30;99.90
25688;DHT22;17407;51.120;3.702;2023-06-19T02:51:31;19.40;99.90
25688;DHT22;17407;51.120;3.702;2023-06-19T02:53:57;19.40;99.90
25688;DHT22;17407;51.120;3.702;2023-06-19T02:56:25;19.50;99.90
25688;DHT22;17407;51.120;3.702;2023-06-19T02:58:50;19.30;99.90
25688;DHT22;17407;51.120;3.702;2023-06-19T03:01:16;19.30;99.90
25688;DHT22;17407;51.120;3.702;2023-06-19T03:03:42;19.40;99.90
25688;DHT22;17407;51.120;3.702;2023-06-19T03:06:08;19.30;99.90
25688;DHT22;17407;51.120;3.702;2023-06-19T03:08:37;19.20;99.90
25688;DHT22;17407;51.120;3.702;2023-06-19T03:11:03;19.10;99.90
25688;DHT22;17407;51.120;3.702;2023-06-19T03:13:45;19.10;99.90
25688;DHT22;17407;51.120;3.702;2023-06-19T03:16:11;19.10;99.90
25688;DHT22;17407;51.120;3.702;2023-06-19T03:18:37;19.20;99.90
25688;DHT22;17407;51.120;3.702;2023-06-19T03:21:03;19.20;99.90
25688;DHT22;17407;51.120;3.702;2023-06-19T03:23:28;19.10;99.90
25688;DHT22;17407;51.120;3.702;2023-06-19T03:25:54;19.00;99.90
25688;DHT22;17407;51.120;3.702;2023-06-19T03:28:20;18.70;99.90
25688;DHT22;17407;51.120;3.702;2023-06-19T03:30:46;18.70;99.90
25688;DHT22;17407;51.120;3.702;2023-06-19T03:33:11;18.70;99.90
25688;DHT22;17407;51.120;3.702;2023-06-19T03:35:37;18.60;99.90
25688;DHT22;17407;51.120;3.702;2023-06-19T03:38:03;18.60;99.90
25688;DHT22;17407;51.120;3.702;2023-06-19T03:40:28;18.50;99.90
25688;DHT22;17407;51.120;3.702;2023-06-19T03:42:54;18.30;99.90
25688;DHT22;17407;51.120;3.702;2023-06-19T03:45:20;18.30;99.90
25688;DHT22;17407;51.120;3.702;2023-06-19T03:47:45;18.20;99.90
25688;DHT22;17407;51.120;3.702;2023-06-19T03:50:11;18.30;99.90
25688;DHT22;17407;51.120;3.702;2023-06-19T03:52:36;18.30;99.90
25688;DHT22;17407;51.120;3.702;2023-06-19T03:55:03;18.00;99.90
25688;DHT22;17407;51.120;3.702;2023-06-19T03:57:29;18.10;99.90
25688;DHT22;17407;51.120;3.702;2023-06-19T03:59:56;17.90;99.90
25688;DHT22;17407;51.120;3.702;2023-06-19T04:02:22;18.00;99.90
25688;DHT22;17407;51.120;3.702;2023-06-19T04:04:48;18.00;99.90
25688;DHT22;17407;51.120;3.702;2023-06-19T04:07:13;18.00;99.90
25688;DHT22;17407;51.120;3.702;2023-06-19T04:09:39;18.00;99.90
25688;DHT22;17407;51.120;3.702;2023-06-19T04:12:05;17.90;99.90
25688;DHT22;17407;51.120;3.702;2023-06-19T04:14:31;17.90;99.90
25688;DHT22;17407;51.120;3.702;2023-06-19T04:16:57;17.80;99.90
25688;DHT22;17407;51.120;3.702;2023-06-19T04:19:22;17.70;99.90
25688;DHT22;17407;51.120;3.702;2023-06-19T04:21:48;17.80;99.90
25688;DHT22;17407;51.120;3.702;2023-06-19T04:24:14;17.80;99.90
25688;DHT22;17407;51.120;3.702;2023-06-19T04:26:39;17.70;99.90
25688;DHT22;17407;51.120;3.702;2023-06-19T04:29:06;17.80;99.90
25688;DHT22;17407;51.120;3.702;2023-06-19T04:31:32;17.90;99.90
25688;DHT22;17407;51.120;3.702;2023-06-19T04:33:58;17.90;99.90
25688;DHT22;17407;51.120;3.702;2023-06-19T04:36:24;17.90;99.90
25688;DHT22;17407;51.120;3.702;2023-06-19T04:38:49;17.70;99.90
25688;DHT22;17407;51.120;3.702;2023-06-19T04:41:18;17.70;99.90
25688;DHT22;17407;51.120;3.702;2023-06-19T04:43:43;17.70;99.90
25688;DHT22;17407;51.120;3.702;2023-06-19T04:46:09;17.70;99.90
25688;DHT22;17407;51.120;3.702;2023-06-19T04:48:35;17.70;99.90
25688;DHT22;17407;51.120;3.702;2023-06-19T04:51:02;17.70;99.90
25688;DHT22;17407;51.120;3.702;2023-06-19T04:53:28;17.80;99.90
25688;DHT22;17407;51.120;3.702;2023-06-19T04:55:54;17.80;99.90
25688;DHT22;17407;51.120;3.702;2023-06-19T04:58:21;17.90;99.90
25688;DHT22;17407;51.120;3.702;2023-06-19T05:00:47;17.90;99.90
25688;DHT22;17407;51.120;3.702;2023-06-19T05:03:17;17.80;99.90
25688;DHT22;17407;51.120;3.702;2023-06-19T05:05:43;17.80;99.90
25688;DHT22;17407;51.120;3.702;2023-06-19T05:08:09;18.00;99.90
25688;DHT22;17407;51.120;3.702;2023-06-19T05:10:35;17.90;99.90
25688;DHT22;17407;51.120;3.702;2023-06-19T05:13:01;18.00;99.90
25688;DHT22;17407;51.120;3.702;2023-06-19T05:15:27;18.10;99.90
25688;DHT22;17407;51.120;3.702;2023-06-19T05:17:53;18.00;99.90
25688;DHT22;17407;51.120;3.702;2023-06-19T05:20:19;18.00;99.90
25688;DHT22;17407;51.120;3.702;2023-06-19T05:22:45;18.20;99.90
25688;DHT22;17407;51.120;3.702;2023-06-19T05:25:10;18.30;99.90
25688;DHT22;17407;51.120;3.702;2023-06-19T05:27:36;18.50;99.90
25688;DHT22;17407;51.120;3.702;2023-06-19T05:30:02;18.40;99.90
25688;DHT22;17407;51.120;3.702;2023-06-19T05:32:29;18.30;99.90
25688;DHT22;17407;51.120;3.702;2023-06-19T05:34:55;18.20;99.90
25688;DHT22;17407;51.120;3.702;2023-06-19T05:37:20;18.20;99.90
25688;DHT22;17407;51.120;3.702;2023-06-19T05:39:48;18.30;99.90
25688;DHT22;17407;51.120;3.702;2023-06-19T05:42:13;18.30;99.90
25688;DHT22;17407;51.120;3.702;2023-06-19T05:44:39;18.30;99.90
25688;DHT22;17407;51.120;3.702;2023-06-19T05:47:05;18.40;99.90
25688;DHT22;17407;51.120;3.702;2023-06-19T05:49:31;18.50;99.90
25688;DHT22;17407;51.120;3.702;2023-06-19T05:51:57;18.60;99.90
25688;DHT22;17407;51.120;3.702;2023-06-19T05:54:25;18.60;99.90
25688;DHT22;17407;51.120;3.702;2023-06-19T05:56:52;18.70;99.90
25688;DHT22;17407;51.120;3.702;2023-06-19T05:59:18;18.60;99.90
25688;DHT22;17407;51.120;3.702;2023-06-19T06:01:43;18.60;99.90
25688;DHT22;17407;51.120;3.702;2023-06-19T06:04:09;18.70;99.90
25688;DHT22;17407;51.120;3.702;2023-06-19T06:06:35;18.70;99.90
25688;DHT22;17407;51.120;3.702;2023-06-19T06:09:01;18.90;99.90
25688;DHT22;17407;51.120;3.702;2023-06-19T06:11:26;18.90;99.90
25688;DHT22;17407;51.120;3.702;2023-06-19T06:13:52;18.90;99.90
25688;DHT22;17407;51.120;3.702;2023-06-19T06:16:18;18.70;99.90
25688;DHT22;17407;51.120;3.702;2023-06-19T06:18:45;18.90;99.90
25688;DHT22;17407;51.120;3.702;2023-06-19T06:21:10;19.00;99.90
25688;DHT22;17407;51.120;3.702;2023-06-19T06:23:40;19.00;99.90
25688;DHT22;17407;51.120;3.702;2023-06-19T06:26:05;19.20;99.90
25688;DHT22;17407;51.120;3.702;2023-06-19T06:28:31;19.30;99.90
25688;DHT22;17407;51.120;3.702;2023-06-19T06:30:57;19.40;99.90
25688;DHT22;17407;51.120;3.702;2023-06-19T06:33:23;19.40;99.90
25688;DHT22;17407;51.120;3.702;2023-06-19T06:35:49;19.20;99.90
25688;DHT22;17407;51.120;3.702;2023-06-19T06:38:14;19.10;99.90
25688;DHT22;17407;51.120;3.702;2023-06-19T06:40:40;19.30;99.90
25688;DHT22;17407;51.120;3.702;2023-06-19T06:43:07;19.40;99.90
25688;DHT22;17407;51.120;3.702;2023-06-19T06:45:32;19.50;99.90
25688;DHT22;17407;51.120;3.702;2023-06-19T06:47:58;19.40;99.90
25688;DHT22;17407;51.120;3.702;2023-06-19T06:50:24;19.40;99.90
25688;DHT22;17407;51.120;3.702;2023-06-19T06:52:49;19.70;99.90
25688;DHT22;17407;51.120;3.702;2023-06-19T06:55:15;19.80;99.90
25688;DHT22;17407;51.120;3.702;2023-06-19T06:57:40;19.90;99.90
25688;DHT22;17407;51.120;3.702;2023-06-19T07:00:06;20.00;99.90
25688;DHT22;17407;51.120;3.702;2023-06-19T07:02:35;20.00;99.90
25688;DHT22;17407;51.120;3.702;2023-06-19T07:05:02;20.10;99.90
25688;DHT22;17407;51.120;3.702;2023-06-19T07:07:28;20.00;99.90
25688;DHT22;17407;51.120;3.702;2023-06-19T07:09:53;20.20;99.90
25688;DHT22;17407;51.120;3.702;2023-06-19T07:12:19;20.30;99.90
25688;DHT22;17407;51.120;3.702;2023-06-19T07:14:45;20.30;99.90
25688;DHT22;17407;51.120;3.702;2023-06-19T07:17:11;20.30;99.90
25688;DHT22;17407;51.120;3.702;2023-06-19T07:19:36;20.30;99.90
25688;DHT22;17407;51.120;3.702;2023-06-19T07:22:02;20.50;99.90
25688;DHT22;17407;51.120;3.702;2023-06-19T07:24:28;20.70;99.90
25688;DHT22;17407;51.120;3.702;2023-06-19T07:26:54;20.80;99.90
25688;DHT22;17407;51.120;3.702;2023-06-19T07:29:20;20.90;99.90
25688;DHT22;17407;51.120;3.702;2023-06-19T07:31:47;21.00;99.90
25688;DHT22;17407;51.120;3.702;2023-06-19T07:34:13;21.10;99.90
25688;DHT22;17407;51.120;3.702;2023-06-19T07:36:39;21.10;99.90
25688;DHT22;17407;51.120;3.702;2023-06-19T07:39:05;21.00;99.90
25688;DHT22;17407;51.120;3.702;2023-06-19T07:41:30;21.00;99.90
25688;DHT22;17407;51.120;3.702;2023-06-19T07:43:56;20.70;99.90
25688;DHT22;17407;51.120;3.702;2023-06-19T07:46:22;20.80;99.90
25688;DHT22;17407;51.120;3.702;2023-06-19T07:48:47;20.90;99.90
25688;DHT22;17407;51.120;3.702;2023-06-19T07:51:13;20.90;99.90
25688;DHT22;17407;51.120;3.702;2023-06-19T07:53:39;20.90;99.90
25688;DHT22;17407;51.120;3.702;2023-06-19T07:56:05;21.00;99.90
25688;DHT22;17407;51.120;3.702;2023-06-19T07:58:30;21.10;99.90
25688;DHT22;17407;51.120;3.702;2023-06-19T08:00:56;21.10;99.90
25688;DHT22;17407;51.120;3.702;2023-06-19T08:03:22;21.30;99.90
25688;DHT22;17407;51.120;3.702;2023-06-19T08:05:49;21.50;99.90
25688;DHT22;17407;51.120;3.702;2023-06-19T08:08:15;21.60;99.90
25688;DHT22;17407;51.120;3.702;2023-06-19T08:10:41;21.60;99.90
25688;DHT22;17407;51.120;3.702;2023-06-19T08:13:07;21.80;99.90
25688;DHT22;17407;51.120;3.702;2023-06-19T08:15:32;22.10;99.90
25688;DHT22;17407;51.120;3.702;2023-06-19T08:17:58;22.00;99.90
25688;DHT22;17407;51.120;3.702;2023-06-19T08:20:24;22.10;99.90
25688;DHT22;17407;51.120;3.702;2023-06-19T08:22:49;21.90;99.90
25688;DHT22;17407;51.120;3.702;2023-06-19T08:25:15;21.80;99.90
25688;DHT22;17407;51.120;3.702;2023-06-19T08:27:41;21.90;99.90
25688;DHT22;17407;51.120;3.702;2023-06-19T08:30:08;21.80;99.90
25688;DHT22;17407;51.120;3.702;2023-06-19T08:32:33;21.80;99.90
25688;DHT22;17407;51.120;3.702;2023-06-19T08:35:00;21.80;99.90
25688;DHT22;17407;51.120;3.702;2023-06-19T08:37:25;21.80;99.90
25688;DHT22;17407;51.120;3.702;2023-06-19T08:39:51;21.80;99.90
25688;DHT22;17407;51.120;3.702;2023-06-19T08:42:16;21.90;99.90
25688;DHT22;17407;51.120;3.702;2023-06-19T08:44:42;22.10;99.90
25688;DHT22;17407;51.120;3.702;2023-06-19T08:47:08;22.20;99.90
25688;DHT22;17407;51.120;3.702;2023-06-19T08:49:36;22.50;99.90
25688;DHT22;17407;51.120;3.702;2023-06-19T08:52:02;22.60;99.90
25688;DHT22;17407;51.120;3.702;2023-06-19T08:54:30;22.70;99.90
25688;DHT22;17407;51.120;3.702;2023-06-19T08:56:55;22.80;99.90
25688;DHT22;17407;51.120;3.702;2023-06-19T08:59:21;22.80;99.90
25688;DHT22;17407;51.120;3.702;2023-06-19T09:01:51;22.90;99.90
25688;DHT22;17407;51.120;3.702;2023-06-19T09:04:19;23.00;99.90
25688;DHT22;17407;51.120;3.702;2023-06-19T09:06:50;23.10;99.90
25688;DHT22;17407;51.120;3.702;2023-06-19T09:09:17;23.30;99.90
25688;DHT22;17407;51.120;3.702;2023-06-19T09:11:57;23.60;99.90
25688;DHT22;17407;51.120;3.702;2023-06-19T09:14:43;23.60;99.90
25688;DHT22;17407;51.120;3.702;2023-06-19T09:17:18;23.60;99.90
25688;DHT22;17407;51.120;3.702;2023-06-19T09:19:48;23.80;99.90
25688;DHT22;17407;51.120;3.702;2023-06-19T09:22:16;23.60;99.90
25688;DHT22;17407;51.120;3.702;2023-06-19T09:24:44;23.50;99.90
25688;DHT22;17407;51.120;3.702;2023-06-19T09:27:32;23.80;99.90
25688;DHT22;17407;51.120;3.702;2023-06-19T09:29:58;23.90;99.90
25688;DHT22;17407;51.120;3.702;2023-06-19T09:32:26;24.20;99.90
25688;DHT22;17407;51.120;3.702;2023-06-19T09:34:53;24.40;99.90
25688;DHT22;17407;51.120;3.702;2023-06-19T09:37:23;24.70;99.90
25688;DHT22;17407;51.120;3.702;2023-06-19T09:39:57;24.80;99.90
25688;DHT22;17407;51.120;3.702;2023-06-19T09:42:31;24.90;99.90
25688;DHT22;17407;51.120;3.702;2023-06-19T09:45:02;25.00;99.90
25688;DHT22;17407;51.120;3.702;2023-06-19T09:47:37;25.10;99.90
25688;DHT22;17407;51.120;3.702;2023-06-19T09:50:04;25.20;99.90
25688;DHT22;17407;51.120;3.702;2023-06-19T09:52:30;25.00;99.90
25688;DHT22;17407;51.120;3.702;2023-06-19T09:54:56;24.80;99.90
25688;DHT22;17407;51.120;3.702;2023-06-19T09:57:24;24.80;99.90
25688;DHT22;17407;51.120;3.702;2023-06-19T09:59:55;24.90;99.90
25688;DHT22;17407;51.120;3.702;2023-06-19T10:02:23;25.20;99.90
25688;DHT22;17407;51.120;3.702;2023-06-19T10:04:55;25.30;99.90
25688;DHT22;17407;51.120;3.702;2023-06-19T10:07:23;25.60;99.90
25688;DHT22;17407;51.120;3.702;2023-06-19T10:10:05;25.60;99.90
25688;DHT22;17407;51.120;3.702;2023-06-19T10:12:41;25.80;99.90
25688;DHT22;17407;51.120;3.702;2023-06-19T10:15:20;25.50;99.90
25688;DHT22;17407;51.120;3.702;2023-06-19T10:20:31;25.70;99.90
25688;DHT22;17407;51.120;3.702;2023-06-19T10:23:10;25.90;99.90
25688;DHT22;17407;51.120;3.702;2023-06-19T10:25:38;26.50;99.90
25688;DHT22;17407;51.120;3.702;2023-06-19T10:28:15;26.90;99.90
25688;DHT22;17407;51.120;3.702;2023-06-19T10:30:41;27.20;99.90
25688;DHT22;17407;51.120;3.702;2023-06-19T10:33:07;27.30;99.90
25688;DHT22;17407;51.120;3.702;2023-06-19T10:35:40;27.10;99.90
25688;DHT22;17407;51.120;3.702;2023-06-19T10:38:07;26.60;99.90
25688;DHT22;17407;51.120;3.702;2023-06-19T10:40:36;26.60;99.90
25688;DHT22;17407;51.120;3.702;2023-06-19T10:43:02;26.60;99.90
25688;DHT22;17407;51.120;3.702;2023-06-19T10:45:30;27.10;99.90
25688;DHT22;17407;51.120;3.702;2023-06-19T10:47:55;27.30;99.90
25688;DHT22;17407;51.120;3.702;2023-06-19T10:50:22;27.90;99.90
25688;DHT22;17407;51.120;3.702;2023-06-19T10:52:48;27.90;99.90
25688;DHT22;17407;51.120;3.702;2023-06-19T10:55:14;28.10;99.90
25688;DHT22;17407;51.120;3.702;2023-06-19T10:57:44;28.20;99.90
25688;DHT22;17407;51.120;3.702;2023-06-19T11:00:10;28.50;99.90
25688;DHT22;17407;51.120;3.702;2023-06-19T11:02:40;28.70;99.90
25688;DHT22;17407;51.120;3.702;2023-06-19T11:05:09;28.80;99.90
25688;DHT22;17407;51.120;3.702;2023-06-19T11:07:35;29.20;99.90
25688;DHT22;17407;51.120;3.702;2023-06-19T11:10:01;29.20;99.90
25688;DHT22;17407;51.120;3.702;2023-06-19T11:12:27;29.20;99.90
25688;DHT22;17407;51.120;3.702;2023-06-19T11:14:53;29.30;99.90
25688;DHT22;17407;51.120;3.702;2023-06-19T11:17:18;29.40;99.90
25688;DHT22;17407;51.120;3.702;2023-06-19T11:19:47;29.90;99.90
25688;DHT22;17407;51.120;3.702;2023-06-19T11:22:12;30.10;99.90
25688;DHT22;17407;51.120;3.702;2023-06-19T11:24:47;30.20;99.90
25688;DHT22;17407;51.120;3.702;2023-06-19T11:27:19;29.90;99.90
25688;DHT22;17407;51.120;3.702;2023-06-19T11:29:45;30.20;99.90
25688;DHT22;17407;51.120;3.702;2023-06-19T11:32:14;30.00;99.90
25688;DHT22;17407;51.120;3.702;2023-06-19T11:34:41;30.20;99.90
25688;DHT22;17407;51.120;3.702;2023-06-19T11:37:16;30.20;99.90
25688;DHT22;17407;51.120;3.702;2023-06-19T11:39:47;29.80;99.90
25688;DHT22;17407;51.120;3.702;2023-06-19T11:42:14;29.50;99.90
25688;DHT22;17407;51.120;3.702;2023-06-19T11:44:59;29.60;99.90
25688;DHT22;17407;51.120;3.702;2023-06-19T11:47:26;29.50;99.90
25688;DHT22;17407;51.120;3.702;2023-06-19T11:49:51;29.50;99.90
25688;DHT22;17407;51.120;3.702;2023-06-19T11:52:17;29.60;99.90
25688;DHT22;17407;51.120;3.702;2023-06-19T11:54:43;29.60;99.90
25688;DHT22;17407;51.120;3.702;2023-06-19T11:57:09;29.50;99.90
25688;DHT22;17407;51.120;3.702;2023-06-19T11:59:42;29.20;99.90
25688;DHT22;17407;51.120;3.702;2023-06-19T12:02:08;29.10;99.90
25688;DHT22;17407;51.120;3.702;2023-06-19T12:04:34;28.90;99.90
25688;DHT22;17407;51.120;3.702;2023-06-19T12:07:00;29.30;99.90
25688;DHT22;17407;51.120;3.702;2023-06-19T12:09:26;29.40;99.90
25688;DHT22;17407;51.120;3.702;2023-06-19T12:11:53;29.10;99.90
25688;DHT22;17407;51.120;3.702;2023-06-19T12:14:18;28.80;99.90
25688;DHT22;17407;51.120;3.702;2023-06-19T12:16:48;28.70;99.90
25688;DHT22;17407;51.120;3.702;2023-06-19T12:19:14;28.70;99.90
25688;DHT22;17407;51.120;3.702;2023-06-19T12:21:40;28.80;99.90
25688;DHT22;17407;51.120;3.702;2023-06-19T12:24:06;29.00;99.90
25688;DHT22;17407;51.120;3.702;2023-06-19T12:26:33;29.10;99.90
25688;DHT22;17407;51.120;3.702;2023-06-19T12:29:02;28.90;99.90
25688;DHT22;17407;51.120;3.702;2023-06-19T12:31:28;29.20;99.90
25688;DHT22;17407;51.120;3.702;2023-06-19T12:33:54;29.50;99.90
25688;DHT22;17407;51.120;3.702;2023-06-19T12:36:20;29.70;99.90
25688;DHT22;17407;51.120;3.702;2023-06-19T12:38:46;29.50;99.90
25688;DHT22;17407;51.120;3.702;2023-06-19T12:41:13;29.60;99.00
25688;DHT22;17407;51.120;3.702;2023-06-19T12:43:38;29.40;99.90
25688;DHT22;17407;51.120;3.702;2023-06-19T12:46:04;29.40;99.90
25688;DHT22;17407;51.120;3.702;2023-06-19T12:48:30;29.70;99.90
25688;DHT22;17407;51.120;3.702;2023-06-19T12:50:57;29.80;99.20
25688;DHT22;17407;51.120;3.702;2023-06-19T12:53:22;29.90;98.50
25688;DHT22;17407;51.120;3.702;2023-06-19T12:55:52;29.60;99.00
25688;DHT22;17407;51.120;3.702;2023-06-19T12:58:18;30.10;99.90
25688;DHT22;17407;51.120;3.702;2023-06-19T13:00:44;30.00;97.60
25688;DHT22;17407;51.120;3.702;2023-06-19T13:03:10;29.60;98.60
25688;DHT22;17407;51.120;3.702;2023-06-19T13:05:35;29.60;99.30
25688;DHT22;17407;51.120;3.702;2023-06-19T13:08:01;29.50;97.60
25688;DHT22;17407;51.120;3.702;2023-06-19T13:10:27;29.30;97.60
25688;DHT22;17407;51.120;3.702;2023-06-19T13:12:53;29.50;97.50
25688;DHT22;17407;51.120;3.702;2023-06-19T13:15:18;29.10;96.50
25688;DHT22;17407;51.120;3.702;2023-06-19T13:17:44;29.20;95.90
25688;DHT22;17407;51.120;3.702;2023-06-19T13:20:10;29.30;95.90
25688;DHT22;17407;51.120;3.702;2023-06-19T13:22:36;29.10;97.60
25688;DHT22;17407;51.120;3.702;2023-06-19T13:25:01;29.10;95.30
25688;DHT22;17407;51.120;3.702;2023-06-19T13:27:28;29.20;96.80
25688;DHT22;17407;51.120;3.702;2023-06-19T13:29:54;29.30;96.30
25688;DHT22;17407;51.120;3.702;2023-06-19T13:32:20;29.40;95.10
25688;DHT22;17407;51.120;3.702;2023-06-19T13:34:46;29.10;96.20
25688;DHT22;17407;51.120;3.702;2023-06-19T13:37:11;29.10;95.70
25688;DHT22;17407;51.120;3.702;2023-06-19T13:39:37;29.60;96.20
25688;DHT22;17407;51.120;3.702;2023-06-19T13:42:05;29.60;95.10
25688;DHT22;17407;51.120;3.702;2023-06-19T13:44:31;29.30;94.60
25688;DHT22;17407;51.120;3.702;2023-06-19T13:46:56;29.30;95.20
25688;DHT22;17407;51.120;3.702;2023-06-19T13:49:22;28.80;95.20
25688;DHT22;17407;51.120;3.702;2023-06-19T13:51:48;29.10;95.90
25688;DHT22;17407;51.120;3.702;2023-06-19T13:54:13;29.20;95.50
25688;DHT22;17407;51.120;3.702;2023-06-19T13:56:40;29.20;94.30
25688;DHT22;17407;51.120;3.702;2023-06-19T13:59:06;29.40;93.20
25688;DHT22;17407;51.120;3.702;2023-06-19T14:01:32;29.60;94.40
25688;DHT22;17407;51.120;3.702;2023-06-19T14:03:58;29.60;93.40
25688;DHT22;17407;51.120;3.702;2023-06-19T14:06:24;29.60;94.40
25688;DHT22;17407;51.120;3.702;2023-06-19T14:08:50;29.40;94.60
25688;DHT22;17407;51.120;3.702;2023-06-19T14:11:16;29.30;94.00
25688;DHT22;17407;51.120;3.702;2023-06-19T14:13:41;29.00;93.60
25688;DHT22;17407;51.120;3.702;2023-06-19T14:16:07;28.90;94.80
25688;DHT22;17407;51.120;3.702;2023-06-19T14:18:33;29.20;93.80
25688;DHT22;17407;51.120;3.702;2023-06-19T14:20:59;29.30;94.00
25688;DHT22;17407;51.120;3.702;2023-06-19T14:23:24;29.10;93.30
25688;DHT22;17407;51.120;3.702;2023-06-19T14:25:50;29.10;93.20
25688;DHT22;17407;51.120;3.702;2023-06-19T14:28:16;29.00;93.70
25688;DHT22;17407;51.120;3.702;2023-06-19T14:30:42;29.00;93.90
25688;DHT22;17407;51.120;3.702;2023-06-19T14:33:07;29.20;94.00
25688;DHT22;17407;51.120;3.702;2023-06-19T14:35:43;29.10;93.20
25688;DHT22;17407;51.120;3.702;2023-06-19T14:38:15;29.50;92.90
25688;DHT22;17407;51.120;3.702;2023-06-19T14:40:43;29.70;93.10
25688;DHT22;17407;51.120;3.702;2023-06-19T14:43:09;29.50;93.50
25688;DHT22;17407;51.120;3.702;2023-06-19T14:45:35;29.60;92.20
25688;DHT22;17407;51.120;3.702;2023-06-19T14:48:01;29.90;92.10
25688;DHT22;17407;51.120;3.702;2023-06-19T14:50:27;29.60;91.70
25688;DHT22;17407;51.120;3.702;2023-06-19T14:52:53;29.90;92.70
25688;DHT22;17407;51.120;3.702;2023-06-19T14:55:18;30.10;92.00
25688;DHT22;17407;51.120;3.702;2023-06-19T14:57:44;30.20;90.30
25688;DHT22;17407;51.120;3.702;2023-06-19T15:00:11;30.40;90.80
25688;DHT22;17407;51.120;3.702;2023-06-19T15:02:36;30.40;90.80
25688;DHT22;17407;51.120;3.702;2023-06-19T15:05:02;30.50;91.00
25688;DHT22;17407;51.120;3.702;2023-06-19T15:07:28;30.10;90.80
25688;DHT22;17407;51.120;3.702;2023-06-19T15:09:54;30.40;90.60
25688;DHT22;17407;51.120;3.702;2023-06-19T15:12:19;30.00;90.50
25688;DHT22;17407;51.120;3.702;2023-06-19T15:14:45;29.40;90.40
25688;DHT22;17407;51.120;3.702;2023-06-19T15:17:11;29.60;91.20
25688;DHT22;17407;51.120;3.702;2023-06-19T15:19:36;29.50;92.10
25688;DHT22;17407;51.120;3.702;2023-06-19T15:22:02;29.50;91.20
25688;DHT22;17407;51.120;3.702;2023-06-19T15:24:28;29.70;91.30
25688;DHT22;17407;51.120;3.702;2023-06-19T15:26:53;29.80;91.40
25688;DHT22;17407;51.120;3.702;2023-06-19T15:29:19;29.70;90.40
25688;DHT22;17407;51.120;3.702;2023-06-19T15:31:45;29.80;90.70
25688;DHT22;17407;51.120;3.702;2023-06-19T15:34:11;29.40;92.00
25688;DHT22;17407;51.120;3.702;2023-06-19T15:36:37;29.20;91.20